createdAt,value
2023-03-04T00:00:39.711Z,101673.06
2023-03-04T00:01:43.787Z,101662.78
2023-03-04T00:02:47.624Z,101676.63
2023-03-04T00:03:51.229Z,101675.63
2023-03-04T00:04:54.865Z,101682.31
2023-03-04T00:05:58.522Z,101687.09
2023-03-04T00:07:02.313Z,101694.22
2023-03-04T00:08:06.047Z,101688.81
2023-03-04T00:09:10.106Z,101679.56
2023-03-04T00:10:13.982Z,101698.41
2023-03-04T00:11:19.282Z,101696.16
2023-03-04T00:12:22.869Z,101693.72
2023-03-04T00:13:26.586Z,101693.41
2023-03-04T00:14:30.574Z,101697.78
2023-03-04T00:15:48.049Z,101667.19
2023-03-04T00:16:51.709Z,101694.66
2023-03-04T00:17:55.374Z,101696.28
2023-03-04T00:19:08.141Z,101696.38
2023-03-04T00:20:12.868Z,101700.31
2023-03-04T00:21:16.455Z,101702.66
2023-03-04T00:22:20.123Z,101669.78
2023-03-04T00:23:26.942Z,101705.44
2023-03-04T00:24:30.811Z,101698.19
2023-03-04T00:25:42.520Z,101701.03
2023-03-04T00:26:48.775Z,101700.97
2023-03-04T00:29:09.217Z,101713.16
2023-03-04T00:30:13.840Z,101711.63
2023-03-04T00:31:34.118Z,101714.88
2023-03-04T00:32:38.079Z,101714.06
2023-03-04T00:33:41.932Z,101722.22
2023-03-04T00:34:45.644Z,101722.00
2023-03-04T00:35:49.320Z,101729.28
2023-03-04T00:36:52.937Z,101726.97
2023-03-04T00:37:56.559Z,101732.38
2023-03-04T00:39:00.229Z,101728.81
2023-03-04T00:40:04.182Z,101727.72
2023-03-04T00:41:07.823Z,101735.03
2023-03-04T00:42:13.143Z,101734.22
2023-03-04T00:43:16.791Z,101737.41
2023-03-04T00:44:20.416Z,101740.44
2023-03-04T00:45:24.133Z,101723.63
2023-03-04T00:46:27.785Z,101738.50
2023-03-04T00:47:31.445Z,101691.47
2023-03-04T00:48:35.054Z,101743.19
2023-03-04T00:49:38.682Z,101743.97
2023-03-04T00:50:42.276Z,101759.31
2023-03-04T00:51:45.954Z,101741.56
2023-03-04T00:52:49.516Z,101751.47
2023-03-04T00:53:53.220Z,101753.13
2023-03-04T00:54:56.958Z,101765.53
2023-03-04T00:56:00.754Z,101753.44
2023-03-04T00:57:04.450Z,101754.56
2023-03-04T00:58:09.729Z,101759.94
2023-03-04T00:59:13.339Z,101761.25
2023-03-04T01:00:17.746Z,101752.81
2023-03-04T01:01:21.433Z,101758.31
2023-03-04T01:02:25.187Z,101758.94
2023-03-04T01:03:33.644Z,101764.72
2023-03-04T01:04:37.624Z,101762.97
2023-03-04T01:05:41.278Z,101773.25
2023-03-04T01:06:44.945Z,101775.09
2023-03-04T01:07:48.585Z,101772.34
2023-03-04T01:08:52.306Z,101771.84
2023-03-04T01:09:55.940Z,101774.91
2023-03-04T01:11:24.625Z,101771.34
2023-03-04T01:12:28.313Z,101775.31
2023-03-04T01:13:44.397Z,101787.81
2023-03-04T01:14:48.005Z,101777.25
2023-03-04T01:17:08.487Z,101767.56
2023-03-04T01:18:12.235Z,101778.66
2023-03-04T01:19:18.518Z,101787.00
2023-03-04T01:20:22.270Z,101775.81
2023-03-04T01:21:25.940Z,101778.75
2023-03-04T01:22:38.293Z,101791.81
2023-03-04T01:23:42.029Z,101790.69
2023-03-04T01:24:45.709Z,101793.56
2023-03-04T01:25:49.427Z,101794.34
2023-03-04T01:26:53.090Z,101801.28
2023-03-04T01:27:56.828Z,101801.69
2023-03-04T01:29:02.203Z,101806.16
2023-03-04T01:30:06.782Z,101806.88
2023-03-04T01:32:27.288Z,101810.44
2023-03-04T01:33:30.896Z,101812.06
2023-03-04T01:34:37.551Z,101805.75
2023-03-04T01:35:41.388Z,101819.41
2023-03-04T01:36:45.147Z,101814.19
2023-03-04T01:39:11.608Z,101827.47
2023-03-04T01:40:18.782Z,101829.97
2023-03-04T01:41:25.857Z,101830.28
2023-03-04T01:42:34.434Z,101794.03
2023-03-04T01:43:38.776Z,101840.44
2023-03-04T01:44:44.677Z,101819.31
2023-03-04T01:45:49.578Z,101832.53
2023-03-04T01:46:56.210Z,101841.31
2023-03-04T01:48:02.776Z,101824.03
2023-03-04T01:49:07.911Z,101846.19
2023-03-04T01:50:18.955Z,101836.78
2023-03-04T01:51:23.343Z,101841.47
2023-03-04T01:52:28.804Z,101848.78
2023-03-04T01:53:36.372Z,101846.03
2023-03-04T01:54:40.208Z,101840.84
2023-03-04T01:57:01.317Z,101850.16
2023-03-04T01:58:11.066Z,101845.59
2023-03-04T01:59:16.928Z,101847.53
2023-03-04T02:00:31.005Z,101851.78
2023-03-04T02:01:35.096Z,101849.34
2023-03-04T02:02:39.016Z,101854.22
2023-03-04T02:03:42.700Z,101855.56
2023-03-04T02:04:46.410Z,101853.97
2023-03-04T02:05:51.485Z,101816.44
2023-03-04T02:06:56.361Z,101864.94
2023-03-04T02:08:01.283Z,101864.63
2023-03-04T02:09:06.200Z,101872.66
2023-03-04T02:10:11.610Z,101865.63
2023-03-04T02:11:15.292Z,101868.19
2023-03-04T02:12:19.078Z,101864.59
2023-03-04T02:13:23.957Z,101876.63
2023-03-04T02:14:28.035Z,101877.22
2023-03-04T02:15:33.554Z,101866.13
2023-03-04T02:16:37.348Z,101878.69
2023-03-04T02:17:41.101Z,101886.91
2023-03-04T02:18:44.900Z,101878.66
2023-03-04T02:19:54.774Z,101881.19
2023-03-04T02:21:05.844Z,101885.59
2023-03-04T02:22:09.811Z,101877.06
2023-03-04T02:23:18.735Z,101891.59
2023-03-04T02:24:30.158Z,101874.19
2023-03-04T02:25:38.740Z,101881.81
2023-03-04T02:26:57.126Z,101873.34
2023-03-04T02:28:00.873Z,101881.72
2023-03-04T02:29:05.449Z,101878.66
2023-03-04T02:30:11.942Z,101872.53
2023-03-04T02:31:24.725Z,101867.56
2023-03-04T02:32:28.463Z,101866.97
2023-03-04T02:33:33.187Z,101890.56
2023-03-04T02:34:37.488Z,101891.59
2023-03-04T02:35:41.216Z,101880.72
2023-03-04T02:36:46.321Z,101891.72
2023-03-04T02:37:50.010Z,101892.00
2023-03-04T02:38:55.334Z,101898.53
2023-03-04T02:39:59.164Z,101896.59
2023-03-04T02:41:03.822Z,101893.78
2023-03-04T02:42:09.916Z,101896.50
2023-03-04T02:43:13.661Z,101872.16
2023-03-04T02:44:18.902Z,101888.91
2023-03-04T02:45:41.142Z,101892.59
2023-03-04T02:46:45.107Z,101892.25
2023-03-04T02:47:49.004Z,101907.28
2023-03-04T02:48:53.070Z,101873.19
2023-03-04T02:49:57.265Z,101893.94
2023-03-04T02:51:00.976Z,101891.50
2023-03-04T02:52:07.837Z,101903.31
2023-03-04T02:53:11.847Z,101910.06
2023-03-04T02:54:19.803Z,101901.28
2023-03-04T02:55:23.508Z,101894.59
2023-03-04T02:56:27.175Z,101892.75
2023-03-04T02:57:32.418Z,101882.94
2023-03-04T02:58:36.165Z,101891.63
2023-03-04T02:59:41.377Z,101886.44
2023-03-04T03:00:45.174Z,101910.03
2023-03-04T03:01:49.250Z,101903.19
2023-03-04T03:02:53.010Z,101901.91
2023-03-04T03:03:56.669Z,101902.72
2023-03-04T03:05:00.538Z,101900.28
2023-03-04T03:06:04.438Z,101896.81
2023-03-04T03:07:08.332Z,101903.22
2023-03-04T03:08:12.007Z,101907.53
2023-03-04T03:09:15.688Z,101911.78
2023-03-04T03:10:19.553Z,101913.72
2023-03-04T03:11:23.216Z,101910.16
2023-03-04T03:12:26.864Z,101904.94
2023-03-04T03:13:32.093Z,101876.34
2023-03-04T03:14:35.724Z,101910.66
2023-03-04T03:15:39.411Z,101913.72
2023-03-04T03:16:43.066Z,101910.25
2023-03-04T03:17:47.909Z,101873.50
2023-03-04T03:18:51.657Z,101902.31
2023-03-04T03:19:55.403Z,101910.66
2023-03-04T03:20:59.000Z,101907.09
2023-03-04T03:22:02.721Z,101904.81
2023-03-04T03:23:06.594Z,101904.13
2023-03-04T03:24:10.321Z,101901.63
2023-03-04T03:25:15.614Z,101893.94
2023-03-04T03:26:19.407Z,101903.88
2023-03-04T03:27:23.101Z,101899.47
2023-03-04T03:28:26.770Z,101901.59
2023-03-04T03:29:32.086Z,101907.13
2023-03-04T03:30:35.836Z,101912.47
2023-03-04T03:31:39.580Z,101904.81
2023-03-04T03:32:43.254Z,101907.03
2023-03-04T03:33:46.893Z,101903.03
2023-03-04T03:34:50.573Z,101905.34
2023-03-04T03:35:54.529Z,101901.09
2023-03-04T03:36:58.335Z,101898.97
2023-03-04T03:38:01.969Z,101888.56
2023-03-04T03:39:05.715Z,101892.03
2023-03-04T03:40:10.685Z,101894.09
2023-03-04T03:41:14.335Z,101893.34
2023-03-04T03:42:17.971Z,101877.06
2023-03-04T03:43:21.581Z,101871.97
2023-03-04T03:44:25.279Z,101900.03
2023-03-04T03:45:30.727Z,101885.75
2023-03-04T03:46:34.414Z,101853.59
2023-03-04T03:47:38.060Z,101882.03
2023-03-04T03:48:41.692Z,101878.75
2023-03-04T03:49:45.383Z,101867.31
2023-03-04T03:50:49.185Z,101877.94
2023-03-04T03:51:52.835Z,101872.81
2023-03-04T03:52:56.680Z,101870.97
2023-03-04T03:54:00.367Z,101869.53
2023-03-04T03:55:04.226Z,101864.09
2023-03-04T03:56:08.589Z,101876.47
2023-03-04T03:57:12.237Z,101815.28
2023-03-04T03:58:15.893Z,101857.88
2023-03-04T03:59:19.733Z,101856.75
2023-03-04T04:00:23.650Z,101848.06
2023-03-04T04:01:28.970Z,101848.25
2023-03-04T04:02:32.763Z,101864.91
2023-03-04T04:03:36.850Z,101863.03
2023-03-04T04:04:40.553Z,101853.78
2023-03-04T04:05:44.255Z,101852.66
2023-03-04T04:06:47.909Z,101820.50
2023-03-04T04:07:53.770Z,101851.53
2023-03-04T04:08:57.850Z,101855.91
2023-03-04T04:10:01.614Z,101840.22
2023-03-04T04:11:05.483Z,101848.28
2023-03-04T04:12:09.498Z,101836.34
2023-03-04T04:13:13.208Z,101828.47
2023-03-04T04:14:16.869Z,101819.78
2023-03-04T04:15:20.655Z,101831.38
2023-03-04T04:16:24.271Z,101828.22
2023-03-04T04:17:29.717Z,101823.63
2023-03-04T04:18:33.395Z,101814.06
2023-03-04T04:19:37.201Z,101813.09
2023-03-04T04:20:40.854Z,101814.84
2023-03-04T04:21:44.569Z,101802.25
2023-03-04T04:22:48.234Z,101811.53
2023-03-04T04:23:51.893Z,101818.59
2023-03-04T04:24:56.046Z,101800.19
2023-03-04T04:26:00.045Z,101807.19
2023-03-04T04:27:03.665Z,101798.97
2023-03-04T04:28:07.299Z,101793.25
2023-03-04T04:29:13.895Z,101794.38
2023-03-04T04:30:17.700Z,101795.22
2023-03-04T04:31:21.361Z,101781.13
2023-03-04T04:32:25.112Z,101760.25
2023-03-04T04:33:30.426Z,101778.47
2023-03-04T04:34:34.097Z,101782.22
2023-03-04T04:35:38.979Z,101779.16
2023-03-04T04:36:42.748Z,101776.75
2023-03-04T04:37:46.709Z,101763.34
2023-03-04T04:38:50.373Z,101756.56
2023-03-04T04:39:54.126Z,101754.47
2023-03-04T04:40:58.889Z,101755.66
2023-03-04T04:42:02.510Z,101754.84
2023-03-04T04:43:06.303Z,101751.72
2023-03-04T04:44:10.624Z,101758.88
2023-03-04T04:45:14.436Z,101756.44
2023-03-04T04:46:18.931Z,101758.06
2023-03-04T04:47:22.828Z,101744.97
2023-03-04T04:48:26.656Z,101746.91
2023-03-04T04:49:31.930Z,101734.91
2023-03-04T04:50:35.619Z,101747.22
2023-03-04T04:51:40.060Z,101745.78
2023-03-04T04:52:43.674Z,101731.81
2023-03-04T04:53:47.435Z,101746.38
2023-03-04T04:54:51.103Z,101739.25
2023-03-04T04:55:54.823Z,101740.25
2023-03-04T04:56:58.521Z,101735.22
2023-03-04T04:58:02.115Z,101727.25
2023-03-04T04:59:07.803Z,101722.53
2023-03-04T05:00:12.805Z,101721.25
2023-03-04T05:01:17.310Z,101714.75
2023-03-04T05:02:21.144Z,101712.16
2023-03-04T05:03:24.936Z,101711.47
2023-03-04T05:04:28.721Z,101714.13
2023-03-04T05:05:34.172Z,101715.25
2023-03-04T05:06:37.920Z,101700.78
2023-03-04T05:07:41.545Z,101700.28
2023-03-04T05:08:45.226Z,101685.16
2023-03-04T05:09:48.999Z,101693.09
2023-03-04T05:10:53.287Z,101685.31
2023-03-04T05:11:56.940Z,101672.50
2023-03-04T05:13:00.663Z,101687.78
2023-03-04T05:14:04.302Z,101682.41
2023-03-04T05:15:08.949Z,101678.31
2023-03-04T05:16:12.745Z,101657.41
2023-03-04T05:17:16.464Z,101677.28
2023-03-04T05:18:20.238Z,101650.84
2023-03-04T05:19:23.874Z,101662.31
2023-03-04T05:20:27.618Z,101667.69
2023-03-04T05:21:32.962Z,101648.47
2023-03-04T05:22:36.645Z,101664.97
2023-03-04T05:23:42.067Z,101667.97
2023-03-04T05:24:45.704Z,101636.97
2023-03-04T05:25:49.626Z,101664.72
2023-03-04T05:26:53.376Z,101661.34
2023-03-04T05:27:57.085Z,101656.44
2023-03-04T05:29:00.799Z,101638.88
2023-03-04T05:30:04.787Z,101656.09
2023-03-04T05:31:08.873Z,101647.81
2023-03-04T05:32:12.629Z,101651.88
2023-03-04T05:33:17.474Z,101629.50
2023-03-04T05:34:21.195Z,101643.44
2023-03-04T05:35:26.201Z,101640.84
2023-03-04T05:36:32.591Z,101646.84
2023-03-04T05:37:36.372Z,101640.84
2023-03-04T05:38:40.074Z,101640.03
2023-03-04T05:39:43.706Z,101635.81
2023-03-04T05:40:48.254Z,101631.78
2023-03-04T05:41:51.940Z,101628.53
2023-03-04T05:42:55.540Z,101632.78
2023-03-04T05:43:59.158Z,101627.84
2023-03-04T05:45:02.843Z,101626.38
2023-03-04T05:46:06.774Z,101578.72
2023-03-04T05:47:10.486Z,101631.06
2023-03-04T05:48:14.166Z,101614.81
2023-03-04T05:49:17.899Z,101610.88
2023-03-04T05:50:22.774Z,101594.22
2023-03-04T05:51:26.448Z,101608.56
2023-03-04T05:52:31.860Z,101618.09
2023-03-04T05:53:35.619Z,101604.84
2023-03-04T05:54:39.307Z,101602.00
2023-03-04T05:55:47.818Z,101601.59
2023-03-04T05:56:51.481Z,101604.19
2023-03-04T05:57:55.261Z,101597.81
2023-03-04T05:58:59.178Z,101561.94
2023-03-04T06:00:03.015Z,101571.44
2023-03-04T06:01:07.150Z,101586.25
2023-03-04T06:02:10.808Z,101592.94
2023-03-04T06:03:16.974Z,101592.44
2023-03-04T06:04:20.898Z,101548.13
2023-03-04T06:05:25.267Z,101581.28
2023-03-04T06:06:29.026Z,101560.31
2023-03-04T06:07:34.359Z,101579.03
2023-03-04T06:08:38.000Z,101561.22
2023-03-04T06:09:41.679Z,101573.16
2023-03-04T06:10:45.312Z,101547.94
2023-03-04T06:11:49.060Z,101572.88
2023-03-04T06:12:52.804Z,101569.66
2023-03-04T06:13:56.747Z,101557.75
2023-03-04T06:15:00.384Z,101565.16
2023-03-04T06:16:04.139Z,101558.66
2023-03-04T06:17:07.870Z,101559.31
2023-03-04T06:18:11.738Z,101554.25
2023-03-04T06:19:15.434Z,101553.22
2023-03-04T06:20:19.446Z,101548.25
2023-03-04T06:21:23.079Z,101541.81
2023-03-04T06:22:26.717Z,101543.44
2023-03-04T06:23:32.265Z,101542.66
2023-03-04T06:24:35.984Z,101537.75
2023-03-04T06:25:39.644Z,101538.16
2023-03-04T06:26:43.286Z,101525.53
2023-03-04T06:27:46.917Z,101522.06
2023-03-04T06:28:50.645Z,101527.09
2023-03-04T06:29:54.395Z,101525.53
2023-03-04T06:30:58.932Z,101530.34
2023-03-04T06:32:02.625Z,101517.91
2023-03-04T06:33:06.340Z,101512.31
2023-03-04T06:34:10.180Z,101508.22
2023-03-04T06:35:14.380Z,101515.41
2023-03-04T06:36:18.013Z,101516.44
2023-03-04T06:37:21.663Z,101518.25
2023-03-04T06:38:25.836Z,101508.81
2023-03-04T06:39:31.315Z,101499.38
2023-03-04T06:40:35.018Z,101508.50
2023-03-04T06:41:38.834Z,101484.59
2023-03-04T06:42:42.646Z,101499.19
2023-03-04T06:43:46.356Z,101500.34
2023-03-04T06:44:50.648Z,101496.78
2023-03-04T06:45:54.378Z,101494.34
2023-03-04T06:46:58.095Z,101486.50
2023-03-04T06:48:01.888Z,101497.16
2023-03-04T06:49:05.655Z,101489.81
2023-03-04T06:50:10.253Z,101488.09
2023-03-04T06:51:14.168Z,101482.03
2023-03-04T06:52:17.982Z,101469.00
2023-03-04T06:53:21.644Z,101466.84
2023-03-04T06:54:25.439Z,101473.63
2023-03-04T06:55:30.697Z,101469.97
2023-03-04T06:56:34.291Z,101475.81
2023-03-04T06:57:37.949Z,101471.06
2023-03-04T06:58:41.568Z,101459.91
2023-03-04T06:59:45.253Z,101460.28
2023-03-04T07:00:49.032Z,101456.91
2023-03-04T07:01:52.720Z,101461.31
2023-03-04T07:02:56.524Z,101451.16
2023-03-04T07:04:00.237Z,101453.13
2023-03-04T07:05:03.937Z,101427.53
2023-03-04T07:06:08.072Z,101440.91
2023-03-04T07:07:12.602Z,101434.84
2023-03-04T07:08:16.396Z,101444.31
2023-03-04T07:09:20.119Z,101432.13
2023-03-04T07:10:23.793Z,101436.19
2023-03-04T07:11:29.176Z,101435.63
2023-03-04T07:12:32.919Z,101433.06
2023-03-04T07:13:37.031Z,101425.38
2023-03-04T07:14:40.738Z,101423.41
2023-03-04T07:15:44.433Z,101419.38
2023-03-04T07:16:48.223Z,101419.59
2023-03-04T07:17:52.022Z,101421.47
2023-03-04T07:18:56.218Z,101398.09
2023-03-04T07:19:59.834Z,101399.75
2023-03-04T07:21:03.568Z,101416.63
2023-03-04T07:22:07.272Z,101416.13
2023-03-04T07:23:10.917Z,101404.88
2023-03-04T07:24:14.737Z,101382.13
2023-03-04T07:25:18.550Z,101402.09
2023-03-04T07:26:22.410Z,101404.41
2023-03-04T07:27:27.736Z,101405.47
2023-03-04T07:28:31.371Z,101408.09
2023-03-04T07:29:35.002Z,101396.22
2023-03-04T07:30:38.610Z,101392.91
2023-03-04T07:31:42.469Z,101389.88
2023-03-04T07:32:46.268Z,101395.63
2023-03-04T07:33:50.054Z,101390.69
2023-03-04T07:34:53.680Z,101381.38
2023-03-04T07:36:01.013Z,101368.56
2023-03-04T07:37:04.876Z,101379.38
2023-03-04T07:38:08.518Z,101373.16
2023-03-04T07:39:13.320Z,101370.03
2023-03-04T07:40:17.167Z,101371.53
2023-03-04T07:41:20.839Z,101373.88
2023-03-04T07:42:26.303Z,101378.91
2023-03-04T07:43:30.259Z,101379.72
2023-03-04T07:44:33.967Z,101369.25
2023-03-04T07:45:38.509Z,101370.97
2023-03-04T07:46:42.392Z,101366.25
2023-03-04T07:47:46.038Z,101370.97
2023-03-04T07:48:49.640Z,101370.38
2023-03-04T07:49:53.374Z,101366.69
2023-03-04T07:51:08.034Z,101355.06
2023-03-04T07:52:11.758Z,101360.47
2023-03-04T07:53:15.409Z,101358.50
2023-03-04T07:54:19.123Z,101363.03
2023-03-04T07:55:22.808Z,101359.56
2023-03-04T07:56:28.913Z,101355.53
2023-03-04T07:57:34.232Z,101364.50
2023-03-04T07:58:38.096Z,101347.78
2023-03-04T07:59:41.689Z,101361.19
2023-03-04T08:00:45.391Z,101359.06
2023-03-04T08:01:49.105Z,101357.09
2023-03-04T08:02:52.810Z,101357.81
2023-03-04T08:03:56.844Z,101360.22
2023-03-04T08:05:00.672Z,101345.69
2023-03-04T08:06:06.757Z,101354.69
2023-03-04T08:07:10.452Z,101349.66
2023-03-04T08:08:15.879Z,101350.34
2023-03-04T08:09:20.700Z,101337.63
2023-03-04T08:10:24.330Z,101347.66
2023-03-04T08:11:29.230Z,101307.66
2023-03-04T08:12:35.035Z,101334.19
2023-03-04T08:13:38.756Z,101340.38
2023-03-04T08:14:42.445Z,101338.09
2023-03-04T08:15:46.192Z,101332.31
2023-03-04T08:16:49.888Z,101327.84
2023-03-04T08:17:53.581Z,101318.13
2023-03-04T08:18:59.241Z,101327.97
2023-03-04T08:20:02.853Z,101327.69
2023-03-04T08:21:10.202Z,101331.34
2023-03-04T08:22:14.077Z,101333.38
2023-03-04T08:23:17.745Z,101329.69
2023-03-04T08:24:21.440Z,101305.72
2023-03-04T08:25:25.187Z,101318.81
2023-03-04T08:26:30.993Z,101321.59
2023-03-04T08:27:36.319Z,101323.88
2023-03-04T08:28:40.657Z,101316.84
2023-03-04T08:29:44.348Z,101314.44
2023-03-04T08:30:54.519Z,101310.06
2023-03-04T08:31:58.949Z,101311.44
2023-03-04T08:33:03.480Z,101309.63
2023-03-04T08:34:07.995Z,101321.03
2023-03-04T08:35:11.658Z,101314.47
2023-03-04T08:36:16.365Z,101307.75
2023-03-04T08:37:20.100Z,101295.78
2023-03-04T08:38:23.729Z,101291.28
2023-03-04T08:39:27.413Z,101308.66
2023-03-04T08:40:31.068Z,101315.97
2023-03-04T08:41:34.785Z,101309.00
2023-03-04T08:42:40.089Z,101303.63
2023-03-04T08:43:44.594Z,101309.06
2023-03-04T08:44:48.306Z,101301.78
2023-03-04T08:45:53.064Z,101300.81
2023-03-04T08:46:56.736Z,101301.84
2023-03-04T08:48:00.395Z,101303.81
2023-03-04T08:49:04.534Z,101297.25
2023-03-04T08:50:09.361Z,101294.00
2023-03-04T08:51:14.383Z,101286.09
2023-03-04T08:52:18.026Z,101289.03
2023-03-04T08:53:21.937Z,101291.38
2023-03-04T08:54:25.544Z,101296.19
2023-03-04T08:55:29.273Z,101295.16
2023-03-04T08:56:33.384Z,101292.06
2023-03-04T08:57:37.069Z,101294.56
2023-03-04T08:58:42.695Z,101292.00
2023-03-04T08:59:46.397Z,101294.94
2023-03-04T09:00:51.221Z,101291.94
2023-03-04T09:01:55.218Z,101295.97
2023-03-04T09:02:58.978Z,101293.75
2023-03-04T09:04:02.687Z,101294.72
2023-03-04T09:05:07.437Z,101292.41
2023-03-04T09:06:14.463Z,101294.81
2023-03-04T09:07:18.932Z,101283.75
2023-03-04T09:08:22.825Z,101282.13
2023-03-04T09:09:26.703Z,101283.41
2023-03-04T09:10:30.705Z,101278.56
2023-03-04T09:11:34.441Z,101283.84
2023-03-04T09:12:38.236Z,101292.41
2023-03-04T09:13:43.641Z,101281.44
2023-03-04T09:14:53.242Z,101295.75
2023-03-04T09:16:02.718Z,101284.28
2023-03-04T09:17:07.074Z,101280.19
2023-03-04T09:18:11.513Z,101288.03
2023-03-04T09:19:15.289Z,101289.03
2023-03-04T09:20:19.011Z,101294.47
2023-03-04T09:21:22.722Z,101288.16
2023-03-04T09:22:26.405Z,101290.31
2023-03-04T09:23:30.203Z,101291.78
2023-03-04T09:24:33.518Z,101294.28
2023-03-04T09:25:37.367Z,101298.00
2023-03-04T09:26:41.048Z,101301.31
2023-03-04T09:27:44.722Z,101293.31
2023-03-04T09:28:51.602Z,101292.88
2023-03-04T09:29:55.295Z,101285.25
2023-03-04T09:30:58.926Z,101292.53
2023-03-04T09:32:02.579Z,101293.78
2023-03-04T09:33:06.292Z,101296.56
2023-03-04T09:34:10.127Z,101290.78
2023-03-04T09:35:13.824Z,101294.72
2023-03-04T09:36:17.777Z,101293.81
2023-03-04T09:37:21.505Z,101286.41
2023-03-04T09:38:25.132Z,101290.31
2023-03-04T09:39:28.848Z,101296.00
2023-03-04T09:40:40.135Z,101290.47
2023-03-04T09:41:47.064Z,101287.81
2023-03-04T09:42:54.767Z,101291.53
2023-03-04T09:44:00.568Z,101285.28
2023-03-04T09:45:06.371Z,101290.25
2023-03-04T09:46:14.523Z,101289.63
2023-03-04T09:47:20.863Z,101264.91
2023-03-04T09:48:27.866Z,101285.72
2023-03-04T09:49:32.189Z,101288.03
2023-03-04T09:50:40.487Z,101293.47
2023-03-04T09:51:52.917Z,101289.78
2023-03-04T09:53:07.189Z,101283.78
2023-03-04T09:54:16.358Z,101287.00
2023-03-04T09:55:23.874Z,101290.94
2023-03-04T09:56:28.444Z,101290.72
2023-03-04T09:57:47.505Z,101291.00
2023-03-04T09:59:06.170Z,101286.59
2023-03-04T10:00:15.586Z,101286.00
2023-03-04T10:01:23.985Z,101288.09
2023-03-04T10:02:42.961Z,101291.66
2023-03-04T10:03:51.823Z,101289.59
2023-03-04T10:05:00.204Z,101287.50
2023-03-04T10:06:08.199Z,101289.38
2023-03-04T10:07:19.611Z,101286.81
2023-03-04T10:08:45.029Z,101296.16
2023-03-04T10:09:54.763Z,101294.06
2023-03-04T10:11:00.293Z,101298.66
2023-03-04T10:12:08.267Z,101283.47
2023-03-04T10:13:19.168Z,101292.34
2023-03-04T10:14:36.106Z,101296.38
2023-03-04T10:15:42.006Z,101295.47
2023-03-04T10:16:50.040Z,101294.19
2023-03-04T10:17:59.710Z,101268.75
2023-03-04T10:19:17.087Z,101308.94
2023-03-04T10:20:23.669Z,101300.88
2023-03-04T10:21:32.737Z,101300.78
2023-03-04T10:22:41.940Z,101295.69
2023-03-04T10:23:45.665Z,101303.63
2023-03-04T10:24:49.940Z,101301.91
2023-03-04T10:25:54.551Z,101298.44
2023-03-04T10:27:03.313Z,101300.38
2023-03-04T10:28:16.566Z,101305.22
2023-03-04T10:29:22.380Z,101311.09
2023-03-04T10:30:37.941Z,101302.75
2023-03-04T10:31:42.115Z,101307.81
2023-03-04T10:32:47.738Z,101308.53
2023-03-04T10:33:51.538Z,101313.78
2023-03-04T10:34:55.212Z,101307.72
2023-03-04T10:36:03.840Z,101301.50
2023-03-04T10:37:09.210Z,101303.25
2023-03-04T10:38:14.683Z,101303.34
2023-03-04T10:39:22.906Z,101313.72
2023-03-04T10:40:27.168Z,101312.88
2023-03-04T10:41:32.512Z,101263.53
2023-03-04T10:42:36.841Z,101308.97
2023-03-04T10:43:40.762Z,101304.50
2023-03-04T10:44:52.048Z,101288.44
2023-03-04T10:45:59.109Z,101286.44
2023-03-04T10:47:03.168Z,101314.97
2023-03-04T10:48:07.454Z,101317.16
2023-03-04T10:49:12.631Z,101319.69
2023-03-04T10:50:23.655Z,101312.69
2023-03-04T10:51:29.994Z,101324.53
2023-03-04T10:52:37.063Z,101317.97
2023-03-04T10:53:42.867Z,101314.50
2023-03-04T10:54:50.739Z,101329.69
2023-03-04T10:55:54.407Z,101308.59
2023-03-04T10:57:01.134Z,101321.75
2023-03-04T10:58:06.588Z,101315.25
2023-03-04T10:59:48.596Z,101325.88
2023-03-04T11:01:04.390Z,101329.56
2023-03-04T11:02:21.065Z,101323.84
2023-03-04T11:03:30.637Z,101329.03
2023-03-04T11:04:35.401Z,101323.63
2023-03-04T11:05:39.102Z,101324.31
2023-03-04T11:06:42.897Z,101325.13
2023-03-04T11:07:55.627Z,101322.44
2023-03-04T11:09:00.804Z,101326.47
2023-03-04T11:10:10.823Z,101338.53
2023-03-04T11:11:25.562Z,101333.50
2023-03-04T11:12:35.539Z,101328.66
2023-03-04T11:13:39.239Z,101332.69
2023-03-04T11:14:46.947Z,101337.41
2023-03-04T11:15:53.016Z,101337.94
2023-03-04T11:17:00.119Z,101331.75
2023-03-04T11:18:07.258Z,101332.69
2023-03-04T11:19:17.475Z,101333.50
2023-03-04T11:20:30.137Z,101335.56
2023-03-04T11:21:40.421Z,101333.22
2023-03-04T11:22:47.039Z,101339.38
2023-03-04T11:23:55.097Z,101334.53
2023-03-04T11:25:03.343Z,101350.59
2023-03-04T11:26:13.846Z,101342.47
2023-03-04T11:27:23.444Z,101344.41
2023-03-04T11:28:34.448Z,101350.81
2023-03-04T11:29:43.150Z,101348.53
2023-03-04T11:30:49.185Z,101354.22
2023-03-04T11:31:59.076Z,101351.84
2023-03-04T11:33:15.266Z,101351.19
2023-03-04T11:34:30.126Z,101360.06
2023-03-04T11:35:40.239Z,101352.34
2023-03-04T11:36:55.841Z,101352.59
2023-03-04T11:38:06.556Z,101360.69
2023-03-04T11:39:20.033Z,101361.75
2023-03-04T11:40:31.032Z,101360.28
2023-03-04T11:41:37.491Z,101359.22
2023-03-04T11:42:45.453Z,101370.03
2023-03-04T11:43:49.327Z,101372.81
2023-03-04T11:44:53.521Z,101366.47
2023-03-04T11:46:26.454Z,101361.00
2023-03-04T11:47:48.867Z,101370.69
2023-03-04T11:49:08.120Z,101369.56
2023-03-04T11:50:24.198Z,101367.75
2023-03-04T11:51:36.072Z,101373.59
2023-03-04T11:52:57.783Z,101365.66
2023-03-04T11:54:16.884Z,101368.97
2023-03-04T11:55:30.912Z,101372.53
2023-03-04T11:56:37.818Z,101375.28
2023-03-04T11:57:51.855Z,101373.66
2023-03-04T11:59:31.411Z,101377.25
2023-03-04T12:00:42.641Z,101373.19
2023-03-04T12:01:54.568Z,101364.69
2023-03-04T12:03:21.247Z,101373.72
2023-03-04T12:04:46.275Z,101382.28
2023-03-04T12:06:00.253Z,101387.31
2023-03-04T12:07:31.593Z,101383.75
2023-03-04T12:08:49.197Z,101384.44
2023-03-04T12:10:03.727Z,101381.69
2023-03-04T12:11:17.413Z,101392.72
2023-03-04T12:12:47.860Z,101399.56
2023-03-04T12:14:07.437Z,101396.13
2023-03-04T12:15:19.869Z,101399.72
2023-03-04T12:16:44.707Z,101392.56
2023-03-04T12:18:13.570Z,101401.31
2023-03-04T12:19:28.183Z,101346.97
2023-03-04T12:20:56.785Z,101405.75
2023-03-04T12:22:29.349Z,101414.47
2023-03-04T12:24:00.707Z,101411.72
2023-03-04T12:25:25.467Z,101355.94
2023-03-04T12:26:39.436Z,101410.47
2023-03-04T12:27:50.233Z,101416.97
2023-03-04T12:29:00.319Z,101419.72
2023-03-04T12:30:18.343Z,101407.88
2023-03-04T12:31:40.332Z,101415.03
2023-03-04T12:32:50.573Z,101421.69
2023-03-04T12:34:09.465Z,101421.34
2023-03-04T12:35:31.840Z,101425.91
2023-03-04T12:36:50.553Z,101431.41
2023-03-04T12:38:24.147Z,101429.63
2023-03-04T12:39:33.413Z,101422.00
2023-03-04T12:40:53.917Z,101426.38
2023-03-04T12:42:06.301Z,101390.63